Time;durP1;ratioP1;P1;durP2;ratioP2;P2;SDS_P1;SDS_P2;PMS_P1;PMS_P2;Temp;Humidity;BMP_temperature;BMP_pressure;BME280_temperature;BME280_humidity;BME280_pressure;Samples;Min_cycle;Max_cycle;Signal;HPM_P1;HPM_P2
2022/05/28 00:01:11;;;;;;;6.63;2.20;;;11.30;99.90;;;;;;5072504;28;20067;-78
2022/05/28 00:03:37;;;;;;;4.38;1.88;;;11.30;99.90;;;;;;5037804;28;20056;-78
2022/05/28 00:06:08;;;;;;;4.88;1.90;;;11.30;99.90;;;;;;5071807;28;20045;-79
2022/05/28 00:08:33;;;;;;;6.85;2.15;;;11.30;99.90;;;;;;5072014;28;20037;-79
2022/05/28 00:10:59;;;;;;;4.78;1.83;;;11.30;99.90;;;;;;5072196;28;20096;-79
2022/05/28 00:13:25;;;;;;;4.00;1.80;;;11.20;99.90;;;;;;5072197;28;20052;-79
2022/05/28 00:15:51;;;;;;;10.65;2.75;;;11.30;99.90;;;;;;5054162;28;20582;-79
2022/05/28 00:18:17;;;;;;;6.25;2.00;;;11.30;99.90;;;;;;5074920;28;20047;-79
2022/05/28 00:20:43;;;;;;;4.18;3.70;;;11.30;99.90;;;;;;5076312;28;20044;-79
2022/05/28 00:23:09;;;;;;;4.15;1.42;;;11.30;99.90;;;;;;5075814;28;20076;-79
2022/05/28 00:25:35;;;;;;;3.38;1.60;;;11.30;99.90;;;;;;5075865;28;20480;-79
2022/05/28 00:28:01;;;;;;;10.70;2.13;;;11.20;99.90;;;;;;5076535;28;20044;-79
2022/05/28 00:30:27;;;;;;;9.93;2.03;;;11.20;99.90;;;;;;5075682;28;20513;-79
2022/05/28 00:32:52;;;;;;;5.07;2.38;;;11.10;99.90;;;;;;5076027;28;20054;-78
2022/05/28 00:35:19;;;;;;;10.32;1.95;;;11.10;99.90;;;;;;5076128;28;20048;-79
2022/05/28 00:37:47;;;;;;;4.82;2.75;;;11.10;99.90;;;;;;5075533;28;20514;-78
2022/05/28 00:40:20;;;;;;;9.23;2.08;;;11.10;99.90;;;;;;5075347;28;20528;-78
2022/05/28 00:42:46;;;;;;;6.80;1.77;;;11.00;99.90;;;;;;5074546;28;20061;-78
2022/05/28 00:45:12;;;;;;;6.63;1.58;;;11.00;99.90;;;;;;5075774;28;20105;-79
2022/05/28 00:47:45;;;;;;;5.07;1.60;;;11.00;99.90;;;;;;5075649;28;20048;-78
2022/05/28 00:50:12;;;;;;;5.30;2.00;;;11.00;99.90;;;;;;5058076;28;20087;-79
2022/05/28 00:52:40;;;;;;;11.35;1.83;;;10.90;99.90;;;;;;5075468;28;20087;-79
2022/05/28 00:55:06;;;;;;;6.57;1.92;;;10.90;99.90;;;;;;5075633;28;20067;-79
2022/05/28 00:57:31;;;;;;;4.72;2.88;;;10.80;99.90;;;;;;5075603;28;20456;-78
2022/05/28 00:59:58;;;;;;;4.32;2.00;;;10.80;99.90;;;;;;5075437;28;20052;-78
2022/05/28 01:02:48;;;;;;;5.57;1.95;;;10.80;99.90;;;;;;5057601;28;20154;-79
2022/05/28 01:05:30;;;;;;;5.57;1.85;;;10.80;99.90;;;;;;5075114;28;20048;-79
2022/05/28 01:08:02;;;;;;;4.55;1.90;;;10.70;99.90;;;;;;5075416;28;20049;-78
2022/05/28 01:10:41;;;;;;;6.17;1.97;;;10.70;99.90;;;;;;5074648;28;20532;-78
2022/05/28 01:13:29;;;;;;;5.85;1.98;;;10.70;99.90;;;;;;5075439;28;20056;-78
2022/05/28 01:16:31;;;;;;;5.90;2.08;;;10.70;99.90;;;;;;5075273;28;20051;-80
2022/05/28 01:19:19;;;;;;;3.42;1.77;;;10.50;99.90;;;;;;5071836;28;20452;-79
2022/05/28 01:22:11;;;;;;;6.40;2.30;;;10.50;99.90;;;;;;5074839;28;20044;-78
2022/05/28 01:24:39;;;;;;;5.35;1.90;;;10.50;99.90;;;;;;5074789;28;20044;-78
2022/05/28 01:27:13;;;;;;;5.90;2.08;;;10.50;99.90;;;;;;5057451;28;20364;-79
2022/05/28 01:29:54;;;;;;;4.90;1.70;;;10.50;99.90;;;;;;5074487;28;20182;-79
2022/05/28 01:32:23;;;;;;;5.65;1.80;;;10.60;99.90;;;;;;5074700;28;20066;-79
2022/05/28 01:34:49;;;;;;;7.18;2.20;;;10.60;99.90;;;;;;5074635;28;20055;-79
2022/05/28 01:37:17;;;;;;;7.22;1.83;;;10.60;99.90;;;;;;5056400;28;20044;-79
2022/05/28 01:39:48;;;;;;;5.60;1.88;;;10.60;99.90;;;;;;5074415;28;20051;-78
2022/05/28 01:42:15;;;;;;;5.90;1.95;;;10.60;99.90;;;;;;5074045;28;20135;-79
2022/05/28 01:44:44;;;;;;;4.47;1.80;;;10.50;99.90;;;;;;5074425;28;20095;-79
2022/05/28 01:47:14;;;;;;;2.92;2.40;;;10.50;99.90;;;;;;5074483;28;20054;-80
2022/05/28 01:49:40;;;;;;;3.03;1.80;;;10.50;99.90;;;;;;5073955;28;20083;-79
2022/05/28 01:52:07;;;;;;;7.82;1.73;;;10.50;99.90;;;;;;5074175;28;20071;-79
2022/05/28 01:54:39;;;;;;;11.95;1.90;;;10.50;99.90;;;;;;5074042;28;20048;-78
2022/05/28 01:57:05;;;;;;;3.72;1.48;;;10.50;99.90;;;;;;5074566;28;20074;-79
2022/05/28 01:59:35;;;;;;;5.72;2.10;;;10.50;99.90;;;;;;5074232;28;20049;-78
2022/05/28 02:02:04;;;;;;;6.15;2.30;;;10.40;99.90;;;;;;5074095;28;20128;-79
2022/05/28 02:04:31;;;;;;;3.58;1.90;;;10.40;99.90;;;;;;5073980;28;20071;-79
2022/05/28 02:06:57;;;;;;;4.22;1.40;;;10.40;99.90;;;;;;5073599;28;20049;-79
2022/05/28 02:09:31;;;;;;;6.85;1.77;;;10.30;99.90;;;;;;5073674;28;20130;-79
2022/05/28 02:12:12;;;;;;;4.97;2.03;;;10.40;99.90;;;;;;5073755;28;20471;-78
2022/05/28 02:14:56;;;;;;;6.88;2.35;;;10.30;99.90;;;;;;5074220;28;20045;-78
2022/05/28 02:17:49;;;;;;;6.70;2.00;;;10.30;99.90;;;;;;5073484;28;20075;-79
2022/05/28 02:20:23;;;;;;;3.17;1.50;;;10.30;99.90;;;;;;5074216;28;20087;-79
2022/05/28 02:23:07;;;;;;;10.38;3.50;;;10.30;99.90;;;;;;5073422;28;20110;-79
2022/05/28 02:25:55;;;;;;;7.50;3.17;;;10.30;99.90;;;;;;5074109;28;20044;-79
2022/05/28 02:28:23;;;;;;;2.65;1.75;;;10.30;99.90;;;;;;5073309;28;20497;-79
2022/05/28 02:31:02;;;;;;;3.85;1.63;;;10.20;99.90;;;;;;5073735;28;20037;-79
2022/05/28 02:33:30;;;;;;;6.93;2.15;;;10.20;99.90;;;;;;5056059;28;20049;-79
2022/05/28 02:35:56;;;;;;;8.00;2.30;;;10.20;99.90;;;;;;5073445;28;20425;-78
2022/05/28 02:38:22;;;;;;;5.88;2.70;;;10.20;99.90;;;;;;5073283;28;20048;-79
2022/05/28 02:40:48;;;;;;;5.28;1.90;;;10.10;99.90;;;;;;5072389;28;20067;-79
2022/05/28 02:43:13;;;;;;;7.40;2.40;;;10.20;99.90;;;;;;5073659;28;20095;-78
2022/05/28 02:45:40;;;;;;;4.43;2.13;;;10.20;99.90;;;;;;5055677;28;20070;-79
2022/05/28 02:48:06;;;;;;;3.95;2.28;;;10.20;99.90;;;;;;5073083;28;20040;-79
2022/05/28 02:50:32;;;;;;;5.78;2.03;;;10.20;99.90;;;;;;5072552;28;20044;-79
2022/05/28 02:52:58;;;;;;;3.85;2.30;;;10.30;99.90;;;;;;5073383;28;20231;-79
2022/05/28 02:55:24;;;;;;;5.10;2.13;;;10.30;99.90;;;;;;5073175;28;20075;-79
2022/05/28 02:57:50;;;;;;;5.53;2.13;;;10.30;99.90;;;;;;5073058;28;20563;-78
2022/05/28 03:00:17;;;;;;;11.20;2.95;;;10.30;99.90;;;;;;5071913;28;20075;-79
2022/05/28 03:02:44;;;;;;;11.90;2.67;;;10.30;99.90;;;;;;5073559;28;20052;-79
2022/05/28 03:05:19;;;;;;;5.57;2.17;;;10.40;99.90;;;;;;5072931;28;20080;-79
2022/05/28 03:07:45;;;;;;;4.60;1.95;;;10.50;99.90;;;;;;5073207;28;20052;-78
2022/05/28 03:10:11;;;;;;;20.00;3.13;;;10.50;99.90;;;;;;5055070;28;20065;-79
2022/05/28 03:12:38;;;;;;;6.22;2.92;;;10.50;99.90;;;;;;5072783;28;20097;-78
2022/05/28 03:15:05;;;;;;;11.20;3.30;;;10.50;99.90;;;;;;5073302;28;20052;-79
2022/05/28 03:17:31;;;;;;;10.63;3.10;;;10.50;99.90;;;;;;5072798;28;20048;-79
2022/05/28 03:19:59;;;;;;;10.38;2.47;;;10.40;99.90;;;;;;5072530;28;20137;-78
2022/05/28 03:22:24;;;;;;;5.18;2.67;;;10.40;99.90;;;;;;5073289;28;20048;-79
2022/05/28 03:24:50;;;;;;;8.10;2.58;;;10.40;99.90;;;;;;5072638;28;20067;-78
2022/05/28 03:27:16;;;;;;;8.95;2.60;;;10.40;99.90;;;;;;5073139;28;20040;-77
2022/05/28 03:29:41;;;;;;;5.22;2.35;;;10.30;99.90;;;;;;5055328;28;20118;-78
2022/05/28 03:32:07;;;;;;;6.60;2.47;;;10.30;99.90;;;;;;5073022;28;20052;-79
2022/05/28 03:34:33;;;;;;;5.13;2.60;;;10.30;99.90;;;;;;5054605;28;20067;-78
2022/05/28 03:36:59;;;;;;;10.00;2.83;;;10.20;99.90;;;;;;5072818;28;20048;-79
2022/05/28 03:39:24;;;;;;;6.20;3.33;;;10.20;99.90;;;;;;5072801;28;20124;-78
2022/05/28 03:41:50;;;;;;;6.57;2.70;;;10.20;99.90;;;;;;5051386;28;20053;-79
2022/05/28 03:44:16;;;;;;;10.68;3.92;;;10.20;99.90;;;;;;5052436;28;20056;-79
2022/05/28 03:46:43;;;;;;;3.88;2.92;;;10.20;99.90;;;;;;5052973;28;20045;-78
2022/05/28 03:49:30;;;;;;;6.05;2.80;;;10.20;99.90;;;;;;5052513;28;20061;-79
2022/05/28 03:51:57;;;;;;;8.85;3.70;;;10.20;99.90;;;;;;5054134;28;20087;-79
2022/05/28 03:54:23;;;;;;;9.65;3.53;;;10.20;99.90;;;;;;5056446;28;20049;-79
2022/05/28 03:56:51;;;;;;;6.93;2.83;;;10.20;99.90;;;;;;5056382;28;20047;-79
2022/05/28 03:59:17;;;;;;;9.00;3.67;;;10.70;99.90;;;;;;5055332;28;20576;-78
2022/05/28 04:01:43;;;;;;;7.20;2.95;;;10.40;99.90;;;;;;5056638;28;20048;-79
2022/05/28 04:04:08;;;;;;;11.27;4.25;;;10.50;99.90;;;;;;5055684;28;20068;-79
2022/05/28 04:06:36;;;;;;;6.20;3.35;;;10.40;99.90;;;;;;5056568;28;20052;-79
2022/05/28 04:09:03;;;;;;;6.35;2.90;;;10.40;99.90;;;;;;5055863;28;20037;-79
2022/05/28 04:11:29;;;;;;;10.48;3.40;;;10.40;99.90;;;;;;5056525;28;20053;-79
2022/05/28 04:13:55;;;;;;;10.25;3.30;;;10.30;99.90;;;;;;5056111;28;20096;-79
2022/05/28 04:16:21;;;;;;;8.35;3.03;;;10.30;99.90;;;;;;5055987;28;20481;-80
2022/05/28 04:18:47;;;;;;;8.00;2.95;;;10.30;99.90;;;;;;5056010;28;20124;-79
2022/05/28 04:21:12;;;;;;;9.38;2.92;;;10.30;99.90;;;;;;5071215;28;20052;-80
2022/05/28 04:23:38;;;;;;;8.20;2.40;;;10.20;99.90;;;;;;5071792;28;20041;-80
2022/05/28 04:26:04;;;;;;;10.10;4.35;;;10.20;99.90;;;;;;5056202;28;20051;-80
2022/05/28 04:28:29;;;;;;;13.18;3.22;;;10.20;99.90;;;;;;5054777;28;20122;-80
2022/05/28 04:30:56;;;;;;;10.55;3.65;;;10.30;99.90;;;;;;5070995;28;20045;-80
2022/05/28 04:33:21;;;;;;;4.95;2.55;;;10.30;99.90;;;;;;5055515;28;20088;-80
2022/05/28 04:35:47;;;;;;;8.38;3.20;;;10.40;99.90;;;;;;5054424;28;20046;-80
2022/05/28 04:38:13;;;;;;;8.20;2.63;;;10.40;99.90;;;;;;5055532;28;20041;-79
2022/05/28 04:40:38;;;;;;;11.80;2.88;;;10.50;99.90;;;;;;5056147;28;20076;-80
2022/05/28 04:43:04;;;;;;;12.07;3.67;;;10.50;99.90;;;;;;5075500;28;20120;-80
2022/05/28 04:45:30;;;;;;;10.68;2.60;;;10.60;99.90;;;;;;5075072;28;20131;-79
2022/05/28 04:47:56;;;;;;;9.05;3.60;;;10.60;99.90;;;;;;5075599;28;20045;-80
2022/05/28 04:50:22;;;;;;;10.75;2.63;;;10.70;99.90;;;;;;5075304;28;20487;-80
2022/05/28 04:52:47;;;;;;;12.57;3.33;;;10.70;99.90;;;;;;5075268;28;20040;-80
2022/05/28 04:55:14;;;;;;;6.03;3.05;;;10.80;99.90;;;;;;5075562;28;20045;-80
2022/05/28 04:57:40;;;;;;;7.60;3.08;;;10.90;99.90;;;;;;5075835;28;20084;-80
2022/05/28 05:00:11;;;;;;;11.05;2.65;;;11.00;99.90;;;;;;5075282;28;20076;-79
2022/05/28 05:02:37;;;;;;;7.07;3.25;;;11.10;99.90;;;;;;5074885;28;20071;-79
2022/05/28 05:05:03;;;;;;;6.00;2.80;;;11.20;99.90;;;;;;5074901;28;20045;-79
2022/05/28 05:07:29;;;;;;;9.95;2.90;;;11.20;99.90;;;;;;5057452;28;20055;-79
2022/05/28 05:09:55;;;;;;;6.80;2.95;;;11.20;99.90;;;;;;5073722;28;20041;-79
2022/05/28 05:12:20;;;;;;;5.05;2.60;;;11.20;99.90;;;;;;5075346;28;20071;-80
2022/05/28 05:14:46;;;;;;;5.82;2.75;;;11.20;99.90;;;;;;5075089;28;20497;-79
2022/05/28 05:17:12;;;;;;;10.75;3.22;;;11.20;99.90;;;;;;5075158;28;20444;-80
2022/05/28 05:19:37;;;;;;;7.22;3.40;;;11.30;99.90;;;;;;5057514;28;20201;-79
2022/05/28 05:22:03;;;;;;;7.85;3.38;;;11.30;99.90;;;;;;5074704;28;20036;-79
2022/05/28 05:24:29;;;;;;;6.95;2.83;;;11.40;99.90;;;;;;5057394;28;20075;-80
2022/05/28 05:26:54;;;;;;;7.85;3.92;;;11.60;99.90;;;;;;5075096;28;20094;-79
2022/05/28 05:29:20;;;;;;;7.63;2.95;;;11.80;99.90;;;;;;5074624;28;20501;-79
2022/05/28 05:31:47;;;;;;;5.60;2.40;;;12.00;99.90;;;;;;5056761;28;20045;-78
2022/05/28 05:34:12;;;;;;;10.23;4.50;;;12.10;99.90;;;;;;5074644;28;20079;-79
2022/05/28 05:36:38;;;;;;;7.50;2.92;;;12.20;99.90;;;;;;5074839;28;20492;-80
2022/05/28 05:39:04;;;;;;;5.93;2.60;;;12.20;99.90;;;;;;5074442;28;20041;-80
2022/05/28 05:41:30;;;;;;;12.20;3.10;;;12.20;99.90;;;;;;5074112;28;20072;-79
2022/05/28 05:43:55;;;;;;;9.18;3.55;;;12.30;99.90;;;;;;5074316;28;20052;-81
2022/05/28 05:46:21;;;;;;;8.50;2.83;;;12.30;99.90;;;;;;5074328;28;20057;-79
2022/05/28 05:48:46;;;;;;;11.00;3.10;;;12.40;99.90;;;;;;5056885;28;20441;-79
2022/05/28 05:51:15;;;;;;;7.28;3.03;;;12.60;99.90;;;;;;5074467;28;20536;-79
2022/05/28 05:53:42;;;;;;;10.77;3.00;;;12.50;99.90;;;;;;5074357;28;20084;-79
2022/05/28 05:56:08;;;;;;;7.72;2.75;;;12.70;99.90;;;;;;5074155;28;20048;-78
2022/05/28 05:58:34;;;;;;;9.63;3.00;;;12.60;99.90;;;;;;5072861;28;20040;-79
2022/05/28 06:01:02;;;;;;;9.68;3.65;;;12.60;99.90;;;;;;5073924;28;20052;-79
2022/05/28 06:03:29;;;;;;;8.10;2.70;;;12.70;99.90;;;;;;5073786;28;20044;-81
2022/05/28 06:05:59;;;;;;;11.43;3.38;;;12.70;99.90;;;;;;5072707;28;20071;-80
2022/05/28 06:08:26;;;;;;;10.65;2.70;;;12.60;99.90;;;;;;5073848;28;20086;-78
2022/05/28 06:10:52;;;;;;;7.43;3.25;;;12.60;99.90;;;;;;5073898;28;20090;-78
2022/05/28 06:13:18;;;;;;;7.95;3.25;;;12.80;99.90;;;;;;5073595;28;20036;-79
2022/05/28 06:15:45;;;;;;;11.25;2.35;;;12.90;99.90;;;;;;5074197;28;20055;-77
2022/05/28 06:18:13;;;;;;;4.82;2.75;;;13.10;99.90;;;;;;5073319;28;20052;-78
2022/05/28 06:20:39;;;;;;;5.45;2.78;;;13.20;99.90;;;;;;5073344;28;20040;-79
2022/05/28 06:23:05;;;;;;;12.00;3.13;;;13.30;99.90;;;;;;5073776;28;20071;-79
2022/05/28 06:25:31;;;;;;;7.85;3.20;;;13.30;99.90;;;;;;5073373;28;20048;-79
2022/05/28 06:27:57;;;;;;;10.00;3.15;;;13.10;99.90;;;;;;5073144;28;20094;-79
2022/05/28 06:30:23;;;;;;;5.25;2.83;;;13.20;99.90;;;;;;5072125;28;20048;-79
2022/05/28 06:32:48;;;;;;;12.05;3.53;;;13.40;99.90;;;;;;5073339;28;20044;-78
2022/05/28 06:35:14;;;;;;;10.57;3.10;;;13.50;99.90;;;;;;5073579;28;20147;-78
2022/05/28 06:37:40;;;;;;;6.53;3.05;;;13.40;99.90;;;;;;5073188;28;20051;-79
2022/05/28 06:40:07;;;;;;;9.50;3.10;;;13.30;99.90;;;;;;5073056;28;20464;-79
2022/05/28 06:42:33;;;;;;;4.85;2.45;;;13.10;99.90;;;;;;5073221;28;20600;-79
2022/05/28 06:44:59;;;;;;;8.00;2.72;;;12.80;99.90;;;;;;5072932;28;20543;-79
2022/05/28 06:47:25;;;;;;;6.50;3.15;;;12.60;99.90;;;;;;5072905;28;20145;-81
2022/05/28 06:52:36;;;;;;;7.05;3.22;;;13.40;99.90;;;;;;5072952;28;20053;-80
2022/05/28 06:55:02;;;;;;;5.97;2.30;;;14.00;99.90;;;;;;5055155;28;20048;-79
2022/05/28 06:57:28;;;;;;;5.22;2.33;;;14.00;99.90;;;;;;5054900;28;20451;-80
2022/05/28 06:59:53;;;;;;;2.85;2.60;;;14.10;99.90;;;;;;5055166;28;20119;-79
2022/05/28 07:02:19;;;;;;;3.65;2.28;;;13.90;99.90;;;;;;5072965;28;20464;-81
2022/05/28 07:04:45;;;;;;;10.07;2.95;;;13.90;99.90;;;;;;5072548;28;20468;-81
2022/05/28 07:07:11;;;;;;;8.38;2.40;;;13.90;99.90;;;;;;5072580;28;20119;-81
2022/05/28 07:09:37;;;;;;;4.93;2.22;;;13.90;99.90;;;;;;5073008;28;20064;-80
2022/05/28 07:12:03;;;;;;;8.30;2.67;;;13.60;99.90;;;;;;5072802;28;20051;-79
2022/05/28 07:14:29;;;;;;;10.35;2.65;;;13.30;99.90;;;;;;5054688;28;20370;-79
2022/05/28 07:16:55;;;;;;;7.28;2.80;;;13.20;99.90;;;;;;5072804;28;20077;-80
2022/05/28 07:19:20;;;;;;;7.63;2.72;;;13.10;99.90;;;;;;5072707;28;20045;-80
2022/05/28 07:21:46;;;;;;;7.65;2.92;;;13.20;99.90;;;;;;5072608;28;20045;-81
2022/05/28 07:24:11;;;;;;;7.15;2.42;;;13.30;99.90;;;;;;5072834;28;20094;-80
2022/05/28 07:26:37;;;;;;;8.88;2.60;;;13.40;99.90;;;;;;5072300;28;20449;-80
2022/05/28 07:29:04;;;;;;;8.02;2.40;;;13.40;99.90;;;;;;5072508;28;20053;-79
2022/05/28 07:31:30;;;;;;;9.05;3.00;;;13.40;99.90;;;;;;5072401;28;20040;-81
2022/05/28 07:33:55;;;;;;;6.10;2.30;;;13.70;99.90;;;;;;5072818;28;20079;-80
2022/05/28 07:36:24;;;;;;;8.93;2.83;;;13.80;99.90;;;;;;5072368;28;20065;-80
2022/05/28 07:38:51;;;;;;;6.32;3.20;;;13.90;99.90;;;;;;5072071;28;20041;-79
2022/05/28 07:41:23;;;;;;;8.27;3.08;;;13.90;99.90;;;;;;5054118;28;20056;-79
2022/05/28 07:43:50;;;;;;;7.90;2.83;;;13.70;99.90;;;;;;5072674;28;20048;-79
2022/05/28 07:46:19;;;;;;;7.60;2.58;;;13.60;99.90;;;;;;5072278;28;20084;-79
2022/05/28 07:48:45;;;;;;;9.70;3.08;;;13.50;99.90;;;;;;5072264;28;20040;-78
2022/05/28 07:51:12;;;;;;;11.98;3.42;;;13.80;99.90;;;;;;5071893;28;20044;-78
2022/05/28 07:53:37;;;;;;;5.93;2.38;;;14.20;99.90;;;;;;5054151;28;20040;-78
2022/05/28 07:56:04;;;;;;;6.40;3.38;;;14.30;99.90;;;;;;5072103;28;20063;-79
2022/05/28 07:58:30;;;;;;;13.50;3.50;;;13.90;99.90;;;;;;5071983;28;20113;-78
2022/05/28 08:00:56;;;;;;;8.35;3.72;;;14.20;99.90;;;;;;5054175;28;20136;-78
2022/05/28 08:03:22;;;;;;;5.68;2.65;;;14.60;99.90;;;;;;5071617;28;20115;-80
2022/05/28 08:05:50;;;;;;;6.38;2.67;;;14.70;99.90;;;;;;5053788;28;20047;-79
2022/05/28 08:08:18;;;;;;;13.63;3.33;;;14.40;99.90;;;;;;5071296;28;20087;-80
2022/05/28 08:10:44;;;;;;;13.50;3.95;;;14.10;99.90;;;;;;5071177;28;20052;-80
2022/05/28 08:13:14;;;;;;;13.30;3.70;;;13.80;99.90;;;;;;5071105;28;20051;-79
2022/05/28 08:15:42;;;;;;;8.57;2.63;;;13.80;99.90;;;;;;5070955;28;20041;-79
2022/05/28 08:18:09;;;;;;;6.63;2.45;;;14.40;99.90;;;;;;5071262;28;20048;-77
2022/05/28 08:23:20;;;;;;;5.90;2.42;;;15.40;99.30;;;;;;5071282;28;20059;-79
2022/05/28 08:25:47;;;;;;;12.27;2.97;;;15.00;97.20;;;;;;5071994;28;20040;-77
2022/05/28 08:28:15;;;;;;;4.88;2.60;;;14.60;95.60;;;;;;5071437;28;20044;-79
2022/05/28 08:30:41;;;;;;;7.80;2.90;;;15.40;97.40;;;;;;5071007;28;20055;-79
2022/05/28 08:33:09;;;;;;;5.63;2.42;;;15.90;97.80;;;;;;5071699;28;20050;-78
2022/05/28 08:35:36;;;;;;;8.77;2.53;;;15.60;95.50;;;;;;5071203;28;20052;-77
2022/05/28 08:38:06;;;;;;;7.75;3.05;;;15.20;95.60;;;;;;5071791;28;20040;-79
2022/05/28 08:40:37;;;;;;;6.55;2.53;;;15.10;96.00;;;;;;5075142;28;20047;-77
2022/05/28 08:43:03;;;;;;;10.98;3.08;;;15.00;96.70;;;;;;5074677;28;20106;-79
2022/05/28 08:45:32;;;;;;;9.27;3.22;;;14.90;98.10;;;;;;5074486;28;20041;-77
2022/05/28 08:48:00;;;;;;;6.38;2.50;;;14.80;96.90;;;;;;5074283;28;20095;-78
2022/05/28 08:50:27;;;;;;;8.02;3.05;;;14.70;97.50;;;;;;5056606;28;20178;-79
2022/05/28 08:53:17;;;;;;;7.90;2.45;;;14.80;97.20;;;;;;5074662;28;20098;-80
2022/05/28 08:55:46;;;;;;;5.15;2.50;;;15.90;97.30;;;;;;5075457;28;20060;-81
2022/05/28 08:58:17;;;;;;;7.85;3.33;;;16.40;97.00;;;;;;5075063;28;20040;-77
2022/05/28 09:00:48;;;;;;;7.03;2.30;;;16.30;94.30;;;;;;5075187;28;20097;-78
2022/05/28 09:03:22;;;;;;;10.05;3.00;;;15.70;96.20;;;;;;5074729;28;20044;-77
2022/05/28 09:06:04;;;;;;;9.52;2.78;;;15.20;94.20;;;;;;5074772;28;20565;-78
2022/05/28 09:08:33;;;;;;;4.27;2.30;;;14.90;94.80;;;;;;5075482;28;20052;-79
2022/05/28 09:11:06;;;;;;;6.30;2.58;;;15.50;95.50;;;;;;5075188;28;20279;-80
2022/05/28 09:13:46;;;;;;;7.03;2.60;;;16.10;95.30;;;;;;5075012;28;20052;-79
2022/05/28 09:16:27;;;;;;;7.35;2.92;;;16.00;94.20;;;;;;5074686;28;20056;-79
2022/05/28 09:18:56;;;;;;;10.65;2.88;;;15.60;94.90;;;;;;5075300;28;20036;-78
2022/05/28 09:21:21;;;;;;;6.63;2.42;;;15.30;94.70;;;;;;5074804;28;20048;-77
2022/05/28 09:23:53;;;;;;;7.65;2.95;;;15.20;96.40;;;;;;5074807;28;20498;-77
2022/05/28 09:26:38;;;;;;;6.05;2.05;;;16.00;95.90;;;;;;5075054;28;20048;-77
2022/05/28 09:29:26;;;;;;;9.40;3.83;;;15.80;93.90;;;;;;5056904;28;20121;-77
2022/05/28 09:32:10;;;;;;;9.88;3.08;;;15.50;95.40;;;;;;5057458;28;20053;-77
2022/05/28 09:34:52;;;;;;;6.30;3.50;;;15.00;95.60;;;;;;5074377;28;20079;-78
2022/05/28 09:37:53;;;;;;;7.88;2.13;;;14.80;97.30;;;;;;5074554;28;20052;-77
2022/05/28 09:40:42;;;;;;;8.68;2.85;;;14.70;95.80;;;;;;5073986;28;20040;-80
2022/05/28 09:43:14;;;;;;;6.78;2.65;;;14.70;96.80;;;;;;5074887;28;20147;-78
2022/05/28 09:46:10;;;;;;;6.82;2.83;;;14.80;97.50;;;;;;5074410;28;20052;-77
2022/05/28 09:48:38;;;;;;;6.75;3.30;;;14.90;96.90;;;;;;5073726;28;20048;-77
2022/05/28 09:51:21;;;;;;;6.45;2.20;;;14.90;97.10;;;;;;5074072;28;20132;-77
2022/05/28 09:56:36;;;;;;;2.95;1.67;;;16.00;95.90;;;;;;5074133;28;20099;-77
2022/05/28 09:59:34;;;;;;;9.00;3.05;;;16.70;95.10;;;;;;5073728;28;20086;-78
2022/05/28 10:02:20;;;;;;;107.70;74.32;;;17.00;92.50;;;;;;5073214;28;20438;-78
2022/05/28 10:04:55;;;;;;;11.20;3.63;;;16.60;93.90;;;;;;5073699;28;20044;-76
2022/05/28 10:07:37;;;;;;;7.35;2.78;;;16.00;94.80;;;;;;5073399;28;20044;-78
2022/05/28 10:10:21;;;;;;;7.55;2.53;;;15.70;95.40;;;;;;5074103;28;20072;-77
2022/05/28 10:12:47;;;;;;;5.13;2.28;;;15.30;92.80;;;;;;5073686;28;20124;-77
2022/05/28 10:15:18;;;;;;;7.63;2.20;;;15.30;94.30;;;;;;5073421;28;20052;-78
2022/05/28 10:18:00;;;;;;;5.60;2.35;;;15.90;93.90;;;;;;5073467;28;20111;-77
2022/05/28 10:20:27;;;;;;;10.55;2.15;;;16.50;94.70;;;;;;5073463;28;20047;-78
2022/05/28 10:22:55;;;;;;;7.03;2.00;;;16.80;95.00;;;;;;5073866;28;20087;-76
2022/05/28 10:25:24;;;;;;;7.88;2.20;;;16.70;93.80;;;;;;5073160;28;20080;-78
2022/05/28 10:27:52;;;;;;;5.93;2.28;;;16.00;92.40;;;;;;5073129;28;20218;-79
2022/05/28 10:30:30;;;;;;;7.72;2.78;;;15.70;93.70;;;;;;5073093;28;20040;-79
2022/05/28 10:32:55;;;;;;;8.63;2.35;;;15.40;93.70;;;;;;5073323;28;20056;-80
2022/05/28 10:35:27;;;;;;;6.80;2.30;;;15.30;94.40;;;;;;5073327;28;20519;-81
2022/05/28 10:38:04;;;;;;;7.43;2.95;;;15.30;94.90;;;;;;5072624;28;20149;-79
2022/05/28 10:40:30;;;;;;;6.38;2.00;;;15.20;95.20;;;;;;5054800;28;20045;-75
2022/05/28 10:43:01;;;;;;;4.57;2.55;;;15.90;95.40;;;;;;5072246;28;20055;-78
2022/05/28 10:45:35;;;;;;;7.70;2.40;;;16.20;94.40;;;;;;5072896;28;20056;-84
2022/05/28 10:48:23;;;;;;;4.80;2.53;;;15.80;92.90;;;;;;5072723;28;20123;-80
2022/05/28 10:51:11;;;;;;;5.88;2.13;;;14.90;91.80;;;;;;5071811;28;20045;-79
2022/05/28 10:54:38;;;;;;;4.30;1.83;;;14.80;91.80;;;;;;5071979;28;20127;-80
2022/05/28 10:57:26;;;;;;;8.38;1.65;;;15.20;91.10;;;;;;4989331;28;20054;-75
2022/05/28 10:59:54;;;;;;;9.57;2.03;;;15.70;91.80;;;;;;5072378;28;20123;-79
2022/05/28 11:02:56;;;;;;;1.30;1.20;;;16.00;92.60;;;;;;5071914;28;20044;-79
2022/05/28 11:06:02;;;;;;;6.07;2.40;;;16.50;91.50;;;;;;5075749;28;20058;-85
2022/05/28 11:09:08;;;;;;;3.08;1.30;;;16.50;88.60;;;;;;5074267;28;20076;-78
2022/05/28 11:11:49;;;;;;;4.03;1.80;;;16.60;88.60;;;;;;5071903;28;20116;-78
2022/05/28 11:14:51;;;;;;;5.40;1.67;;;16.50;89.80;;;;;;5054402;28;20087;-75
2022/05/28 11:17:37;;;;;;;7.88;2.20;;;16.50;90.10;;;;;;5072627;28;20044;-77
2022/05/28 11:20:09;;;;;;;3.88;2.25;;;16.30;91.30;;;;;;5072546;28;20045;-78
2022/05/28 11:22:45;;;;;;;5.80;1.95;;;16.00;88.70;;;;;;5072761;28;20044;-77
2022/05/28 11:25:42;;;;;;;5.18;2.13;;;15.70;90.50;;;;;;5073169;28;20059;-78
2022/05/28 11:28:27;;;;;;;6.00;2.28;;;15.80;91.20;;;;;;5044764;28;20084;-77
2022/05/28 11:31:01;;;;;;;5.22;1.85;;;15.90;91.00;;;;;;5072939;28;20468;-79
2022/05/28 11:33:36;;;;;;;5.53;2.00;;;16.50;90.60;;;;;;5072157;28;20045;-80
2022/05/28 11:36:27;;;;;;;6.10;2.30;;;16.60;90.80;;;;;;5072148;28;20124;-78
2022/05/28 11:39:18;;;;;;;6.55;1.83;;;16.80;90.20;;;;;;5062111;28;20064;-78
2022/05/28 11:41:54;;;;;;;5.55;1.80;;;16.60;90.10;;;;;;5060956;28;20079;-78
2022/05/28 11:45:02;;;;;;;3.45;1.50;;;16.80;90.70;;;;;;5071540;28;20493;-77
2022/05/28 11:47:34;;;;;;;21.80;13.60;;;17.00;89.20;;;;;;4999506;28;20153;-79
2022/05/28 11:53:41;;;;;;;3.67;2.20;;;16.40;88.60;;;;;;5071313;28;20052;-77
2022/05/28 11:56:20;;;;;;;6.03;2.50;;;16.30;91.00;;;;;;5070980;28;20037;-75
2022/05/28 11:58:50;;;;;;;4.65;2.08;;;16.20;90.40;;;;;;5052913;28;20044;-76
2022/05/28 12:01:27;;;;;;;6.50;1.80;;;16.00;91.70;;;;;;5070931;28;20060;-77
2022/05/28 12:03:53;;;;;;;6.50;2.67;;;15.20;96.80;;;;;;5071447;28;20040;-75
2022/05/28 12:06:31;;;;;;;6.13;2.30;;;14.70;98.20;;;;;;5070985;28;20084;-75
2022/05/28 12:09:06;;;;;;;5.00;2.15;;;14.30;99.90;;;;;;5071635;28;20371;-75
2022/05/28 12:12:17;;;;;;;4.15;2.50;;;14.20;99.90;;;;;;5070749;28;20519;-79
2022/05/28 12:14:47;;;;;;;7.00;1.95;;;13.90;99.90;;;;;;5054712;28;20096;-75
2022/05/28 12:17:19;;;;;;;5.65;1.90;;;14.00;99.90;;;;;;5075251;28;20067;-76
2022/05/28 12:20:00;;;;;;;6.05;2.58;;;14.10;99.90;;;;;;5075187;28;20037;-76
2022/05/28 12:22:33;;;;;;;6.25;2.58;;;14.40;99.90;;;;;;5076198;28;20094;-77
2022/05/28 12:25:11;;;;;;;5.30;3.05;;;14.50;99.90;;;;;;5077381;28;20092;-77
2022/05/28 12:28:11;;;;;;;6.45;2.58;;;14.60;99.90;;;;;;5074645;28;20123;-76
2022/05/28 12:30:44;;;;;;;5.63;2.30;;;14.50;99.90;;;;;;5076039;28;20080;-79
2022/05/28 12:33:21;;;;;;;7.40;2.75;;;14.60;99.90;;;;;;5058131;28;20127;-78
2022/05/28 12:36:06;;;;;;;10.23;2.90;;;14.90;99.90;;;;;;5074713;28;20456;-79
2022/05/28 12:38:44;;;;;;;11.13;3.67;;;14.90;99.90;;;;;;5057493;28;20037;-78
2022/05/28 12:41:40;;;;;;;8.52;2.50;;;15.10;99.90;;;;;;5075214;28;20055;-79
2022/05/28 12:44:15;;;;;;;7.47;2.55;;;15.30;99.90;;;;;;5058096;28;20048;-78
2022/05/28 12:46:55;;;;;;;7.55;2.35;;;15.30;96.70;;;;;;5075350;28;20040;-79
2022/05/28 12:49:33;;;;;;;7.97;2.60;;;15.20;95.50;;;;;;5074955;28;20040;-76
2022/05/28 12:52:23;;;;;;;5.45;2.50;;;15.10;96.10;;;;;;5074862;28;20076;-76
2022/05/28 12:55:18;;;;;;;9.13;3.00;;;15.30;95.70;;;;;;5074952;28;20064;-78
2022/05/28 12:57:57;;;;;;;7.53;3.15;;;15.40;95.50;;;;;;5073778;28;20075;-77
2022/05/28 13:00:25;;;;;;;8.48;2.13;;;15.50;96.10;;;;;;5075519;28;20036;-79
2022/05/28 13:02:54;;;;;;;7.45;2.60;;;15.70;95.50;;;;;;5075360;28;20086;-78
2022/05/28 13:05:43;;;;;;;9.50;2.33;;;15.90;94.80;;;;;;5074396;28;20044;-75
2022/05/28 13:08:12;;;;;;;5.68;2.67;;;15.60;94.40;;;;;;5074140;28;20059;-77
2022/05/28 13:10:48;;;;;;;4.68;1.98;;;15.50;94.50;;;;;;5074336;28;20048;-76
2022/05/28 13:13:36;;;;;;;9.48;2.40;;;15.50;94.80;;;;;;5074354;28;20040;-74
2022/05/28 13:16:30;;;;;;;16.00;2.75;;;15.60;94.20;;;;;;5073600;28;20431;-75
2022/05/28 13:19:16;;;;;;;7.20;2.10;;;16.00;94.90;;;;;;5073696;28;20040;-79
2022/05/28 13:21:57;;;;;;;7.05;2.17;;;16.20;92.70;;;;;;5055999;28;20045;-76